createdAt,value
2018-04-23T00:01:02.259Z,13.43
2018-04-23T00:03:28.864Z,19.40
2018-04-23T00:05:55.449Z,19.77
2018-04-23T00:08:22.024Z,25.60
2018-04-23T00:10:48.624Z,23.83
2018-04-23T00:13:15.200Z,17.13
2018-04-23T00:15:41.820Z,22.60
2018-04-23T00:18:08.418Z,19.77
2018-04-23T00:20:34.988Z,16.87
2018-04-23T00:23:01.624Z,23.57
2018-04-23T00:25:28.232Z,19.80
2018-04-23T00:27:54.821Z,17.93
2018-04-23T00:30:21.480Z,14.57
2018-04-23T00:32:48.064Z,19.77
2018-04-23T00:35:14.668Z,19.83
2018-04-23T00:37:41.258Z,15.70
2018-04-23T00:40:07.916Z,22.43
2018-04-23T00:42:34.432Z,26.23
2018-04-23T00:45:01.012Z,15.80
2018-04-23T00:47:27.607Z,20.17
2018-04-23T00:49:54.191Z,21.97
2018-04-23T00:52:21.251Z,19.07
2018-04-23T00:54:47.836Z,24.10
2018-04-23T00:57:14.425Z,22.43
2018-04-23T00:59:41.020Z,17.17
2018-04-23T01:02:07.609Z,19.20
2018-04-23T01:04:34.254Z,20.27
2018-04-23T01:07:00.839Z,14.67
2018-04-23T01:09:27.416Z,16.60
2018-04-23T01:11:54.019Z,19.70
2018-04-23T01:14:20.599Z,17.30
2018-04-23T01:16:47.196Z,20.50
2018-04-23T01:19:13.792Z,18.37
2018-04-23T01:21:40.379Z,20.33
2018-04-23T01:24:06.980Z,17.73
2018-04-23T01:26:33.560Z,18.33
2018-04-23T01:29:00.403Z,21.23
2018-04-23T01:31:27.003Z,21.13
2018-04-23T01:33:53.591Z,19.70
2018-04-23T01:36:20.184Z,20.20
2018-04-23T01:38:46.768Z,17.33
2018-04-23T01:41:13.368Z,24.03
2018-04-23T01:43:39.965Z,18.80
2018-04-23T01:46:06.548Z,18.63
2018-04-23T01:48:33.140Z,17.20
2018-04-23T01:50:59.723Z,16.53
2018-04-23T01:53:26.407Z,18.57
2018-04-23T01:55:52.995Z,18.77
2018-04-23T01:58:19.583Z,18.53
2018-04-23T02:00:46.180Z,16.33
2018-04-23T02:03:12.768Z,16.30
2018-04-23T02:05:39.412Z,19.57
2018-04-23T02:08:05.992Z,18.90
2018-04-23T02:10:32.579Z,20.77
2018-04-23T02:12:59.188Z,27.13
2018-04-23T02:15:25.772Z,18.07
2018-04-23T02:17:52.412Z,22.17
2018-04-23T02:20:19.012Z,21.20
2018-04-23T02:22:45.596Z,17.80
2018-04-23T02:25:12.224Z,25.97
2018-04-23T02:27:38.864Z,20.63
2018-04-23T02:30:05.452Z,22.60
2018-04-23T02:32:32.050Z,17.73
2018-04-23T02:34:58.636Z,18.57
2018-04-23T02:37:25.220Z,17.13
2018-04-23T02:39:51.821Z,17.80
2018-04-23T02:42:18.409Z,26.00
2018-04-23T02:44:45.017Z,15.63
2018-04-23T02:47:11.628Z,18.40
2018-04-23T02:49:38.220Z,19.10
2018-04-23T02:52:04.804Z,16.23
2018-04-23T02:54:31.412Z,18.10
2018-04-23T02:56:57.996Z,18.13
2018-04-23T02:59:25.463Z,13.33
2018-04-23T03:01:52.061Z,15.37
2018-04-23T03:04:18.665Z,16.90
2018-04-23T03:06:45.244Z,18.40
2018-04-23T03:09:11.862Z,13.73
2018-04-23T03:11:38.443Z,16.37
2018-04-23T03:14:05.033Z,14.63
2018-04-23T03:16:31.627Z,17.30
2018-04-23T03:18:58.216Z,18.30
2018-04-23T03:21:24.807Z,14.93
2018-04-23T03:23:51.400Z,19.47
2018-04-23T03:26:17.988Z,16.63
2018-04-23T03:28:44.572Z,16.50
2018-04-23T03:31:11.173Z,17.23
2018-04-23T03:33:37.760Z,15.30
2018-04-23T03:36:04.368Z,19.73
2018-04-23T03:38:31.102Z,16.20
2018-04-23T03:40:57.663Z,17.00
2018-04-23T03:43:24.261Z,19.90
2018-04-23T03:45:50.845Z,16.77
2018-04-23T03:48:17.455Z,16.97
2018-04-23T03:50:44.053Z,20.43
2018-04-23T03:53:10.644Z,15.07
2018-04-23T03:55:37.231Z,15.40
2018-04-23T03:58:03.836Z,15.70
2018-04-23T04:00:30.416Z,17.40
2018-04-23T04:02:57.002Z,21.13
2018-04-23T04:05:23.587Z,21.10
2018-04-23T04:07:50.185Z,23.83
2018-04-23T04:10:16.771Z,21.53
2018-04-23T04:12:49.256Z,17.17
2018-04-23T04:15:21.862Z,21.73
2018-04-23T04:18:03.340Z,21.67
2018-04-23T04:20:29.928Z,27.53
2018-04-23T04:22:56.516Z,18.77
2018-04-23T04:25:23.169Z,15.67
2018-04-23T04:27:49.762Z,24.00
2018-04-23T04:30:16.361Z,22.30
2018-04-23T04:32:42.957Z,14.73
2018-04-23T04:35:09.527Z,21.00
2018-04-23T04:37:36.130Z,19.83
2018-04-23T04:40:02.709Z,19.30
2018-04-23T04:42:29.660Z,21.67
2018-04-23T04:44:56.259Z,17.70
2018-04-23T04:47:22.847Z,21.57
2018-04-23T04:49:49.440Z,17.20
2018-04-23T04:52:16.017Z,19.83
2018-04-23T04:54:42.631Z,16.20
2018-04-23T04:57:09.254Z,18.20
2018-04-23T04:59:35.837Z,18.93
2018-04-23T05:02:02.516Z,17.50
2018-04-23T05:04:29.085Z,20.53
2018-04-23T05:06:55.683Z,17.87
2018-04-23T05:09:22.275Z,12.97
2018-04-23T05:11:48.894Z,16.97
2018-04-23T05:14:15.461Z,18.93
2018-04-23T05:16:42.044Z,15.63
2018-04-23T05:19:08.895Z,16.13
2018-04-23T05:21:35.484Z,15.40
2018-04-23T05:24:02.064Z,20.97
2018-04-23T05:26:28.659Z,18.40
2018-04-23T05:28:55.240Z,15.87
2018-04-23T05:31:22.784Z,15.30
2018-04-23T05:33:49.367Z,15.00
2018-04-23T05:36:15.947Z,20.60
2018-04-23T05:38:42.570Z,14.30
2018-04-23T05:41:09.145Z,17.00
2018-04-23T05:43:35.781Z,17.97
2018-04-23T05:46:02.364Z,11.90
2018-04-23T05:48:28.947Z,12.97
2018-04-23T05:50:55.600Z,13.43
2018-04-23T05:53:22.280Z,13.40
2018-04-23T05:55:48.856Z,11.60
2018-04-23T05:58:15.480Z,10.90
2018-04-23T06:00:42.064Z,14.60
2018-04-23T06:03:08.701Z,13.90
2018-04-23T06:05:35.274Z,16.40
2018-04-23T06:08:01.870Z,13.30
2018-04-23T06:10:28.455Z,10.67
2018-04-23T06:12:55.044Z,10.27
2018-04-23T06:15:21.628Z,11.40
2018-04-23T06:17:48.207Z,9.17
2018-04-23T06:20:14.811Z,11.10
2018-04-23T06:22:41.397Z,11.73
2018-04-23T06:25:07.980Z,20.10
2018-04-23T06:27:34.583Z,11.50
2018-04-23T06:30:01.215Z,16.30
2018-04-23T06:32:29.132Z,17.43
2018-04-23T06:34:55.844Z,13.90
2018-04-23T06:37:22.428Z,16.60
2018-04-23T06:39:49.032Z,12.97
2018-04-23T06:42:15.620Z,11.47
2018-04-23T06:44:42.216Z,17.90
2018-04-23T06:47:08.796Z,18.30
2018-04-23T06:49:35.399Z,13.93
2018-04-23T06:52:01.991Z,13.93
2018-04-23T06:54:28.575Z,12.93
2018-04-23T06:56:55.178Z,18.03
2018-04-23T06:59:21.759Z,12.20
2018-04-23T07:01:48.351Z,13.27
2018-04-23T07:04:14.932Z,15.23
2018-04-23T07:06:41.526Z,17.20
2018-04-23T07:09:08.117Z,15.67
2018-04-23T07:11:34.691Z,14.53
2018-04-23T07:14:01.302Z,13.60
2018-04-23T07:16:27.908Z,16.50
2018-04-23T07:18:54.489Z,19.93
2018-04-23T07:21:21.100Z,18.00
2018-04-23T07:23:47.690Z,20.70
2018-04-23T07:26:14.263Z,16.37
2018-04-23T07:28:40.877Z,13.70
2018-04-23T07:31:07.464Z,19.30
2018-04-23T07:33:34.069Z,17.33
2018-04-23T07:36:00.651Z,18.20
2018-04-23T07:38:27.232Z,14.07
2018-04-23T07:40:53.828Z,20.30
2018-04-23T07:43:20.423Z,15.90
2018-04-23T07:45:47.020Z,12.37
2018-04-23T07:48:13.611Z,17.00
2018-04-23T07:50:40.198Z,12.27
2018-04-23T07:53:06.815Z,16.33
2018-04-23T07:55:33.422Z,18.60
2018-04-23T07:58:00.033Z,17.03
2018-04-23T08:00:26.671Z,14.20
2018-04-23T08:02:53.253Z,18.13
2018-04-23T08:05:19.849Z,19.03
2018-04-23T08:07:46.428Z,15.57
2018-04-23T08:10:13.030Z,17.83
2018-04-23T08:12:39.608Z,16.20
2018-04-23T08:15:06.206Z,16.17
2018-04-23T08:17:32.788Z,23.10
2018-04-23T08:19:59.381Z,16.20
2018-04-23T08:22:25.967Z,16.60
2018-04-23T08:24:52.565Z,17.83
2018-04-23T08:27:19.271Z,18.57
2018-04-23T08:29:45.848Z,22.43
2018-04-23T08:32:12.448Z,18.37
2018-04-23T08:34:39.040Z,25.27
2018-04-23T08:37:05.632Z,20.57
2018-04-23T08:39:32.236Z,14.93
2018-04-23T08:41:58.821Z,18.80
2018-04-23T08:44:25.420Z,20.50
2018-04-23T08:46:52.008Z,28.37
2018-04-23T08:49:18.592Z,19.03
2018-04-23T08:51:45.187Z,21.43
2018-04-23T08:54:11.807Z,18.70
2018-04-23T08:56:38.407Z,19.40
2018-04-23T08:59:04.996Z,22.50
2018-04-23T09:01:31.584Z,20.33
2018-04-23T09:03:58.178Z,18.27
2018-04-23T09:06:24.764Z,19.17
2018-04-23T09:08:51.364Z,18.60
2018-04-23T09:11:17.980Z,19.63
2018-04-23T09:13:44.567Z,14.67
2018-04-23T09:16:11.160Z,16.13
2018-04-23T09:18:37.748Z,25.20
2018-04-23T09:21:04.380Z,16.33
2018-04-23T09:23:30.965Z,15.87
2018-04-23T09:25:57.566Z,19.60
2018-04-23T09:28:24.180Z,20.20
2018-04-23T09:30:50.764Z,20.77
2018-04-23T09:33:17.344Z,15.53
2018-04-23T09:35:43.938Z,17.63
2018-04-23T09:38:10.537Z,19.67
2018-04-23T09:40:37.518Z,16.43
2018-04-23T09:43:04.092Z,21.57
2018-04-23T09:45:31.057Z,14.17
2018-04-23T09:47:57.643Z,21.10
2018-04-23T09:50:24.232Z,15.87
2018-04-23T09:52:50.831Z,23.10
2018-04-23T09:55:17.419Z,14.13
2018-04-23T09:57:44.391Z,18.50
2018-04-23T10:00:10.984Z,16.17
2018-04-23T10:02:37.577Z,21.30
2018-04-23T10:05:04.174Z,15.83
2018-04-23T10:07:30.766Z,21.63
2018-04-23T10:09:57.366Z,19.90
2018-04-23T10:12:23.953Z,17.73
2018-04-23T10:14:50.540Z,20.00
2018-04-23T10:17:17.143Z,24.77
2018-04-23T10:19:43.736Z,21.97
2018-04-23T10:22:10.340Z,16.50
2018-04-23T10:24:36.928Z,23.60
2018-04-23T10:27:03.789Z,16.53
2018-04-23T10:29:30.421Z,20.30
2018-04-23T10:31:57.016Z,20.53
2018-04-23T10:34:23.607Z,23.13
2018-04-23T10:36:50.196Z,15.07
2018-04-23T10:39:17.150Z,17.77
2018-04-23T10:41:43.768Z,18.10
2018-04-23T10:44:10.360Z,17.87
2018-04-23T10:46:36.952Z,14.57
2018-04-23T10:49:03.545Z,16.20
2018-04-23T10:51:30.154Z,15.70
2018-04-23T10:53:56.745Z,15.47
2018-04-23T10:56:23.328Z,13.07
2018-04-23T10:58:49.921Z,14.40
2018-04-23T11:01:16.506Z,15.73
2018-04-23T11:03:43.124Z,12.80
2018-04-23T11:06:09.721Z,11.90
2018-04-23T11:08:36.304Z,16.50
2018-04-23T11:11:02.892Z,14.93
2018-04-23T11:13:29.483Z,11.43
2018-04-23T11:15:56.091Z,12.37
2018-04-23T11:18:22.684Z,10.70
2018-04-23T11:20:49.272Z,14.67
2018-04-23T11:23:15.852Z,9.80
2018-04-23T11:25:42.437Z,11.33
2018-04-23T11:28:09.044Z,9.90
2018-04-23T11:30:35.624Z,10.83
2018-04-23T11:33:02.256Z,8.07
2018-04-23T11:35:28.843Z,8.77
2018-04-23T11:37:55.424Z,11.10
2018-04-23T11:40:22.020Z,7.40
2018-04-23T11:42:48.602Z,10.17
2018-04-23T11:45:15.199Z,9.50
2018-04-23T11:47:41.794Z,11.90
2018-04-23T11:50:08.381Z,10.30
2018-04-23T11:52:34.988Z,10.83
2018-04-23T11:55:01.564Z,7.00
2018-04-23T11:57:28.153Z,9.13
2018-04-23T11:59:54.740Z,10.97
2018-04-23T12:02:21.315Z,8.80
2018-04-23T12:04:47.908Z,8.23
2018-04-23T12:07:14.492Z,10.40
2018-04-23T12:09:41.067Z,9.90
2018-04-23T12:12:07.716Z,6.10
2018-04-23T12:14:34.296Z,6.80
2018-04-23T12:17:00.884Z,7.37
2018-04-23T12:19:27.474Z,11.73
2018-04-23T12:21:54.060Z,8.27
2018-04-23T12:24:20.654Z,5.77
2018-04-23T12:26:47.236Z,4.70
2018-04-23T12:29:13.928Z,5.30
2018-04-23T12:31:40.489Z,5.87
2018-04-23T12:34:07.084Z,6.10
2018-04-23T12:36:33.665Z,5.53
2018-04-23T12:39:00.256Z,7.03
2018-04-23T12:41:26.848Z,8.77
2018-04-23T12:43:53.452Z,8.03
2018-04-23T12:46:20.140Z,4.83
2018-04-23T12:48:46.618Z,6.77
2018-04-23T12:51:13.217Z,5.13
2018-04-23T12:53:39.816Z,4.63
2018-04-23T12:56:06.392Z,5.37
2018-04-23T12:58:33.000Z,6.00
2018-04-23T13:00:59.576Z,10.00
2018-04-23T13:03:26.184Z,7.30
2018-04-23T13:05:52.818Z,9.03
2018-04-23T13:08:19.397Z,6.80
2018-04-23T13:10:45.979Z,8.30
2018-04-23T13:13:12.563Z,8.63
2018-04-23T13:15:39.176Z,10.60
2018-04-23T13:18:05.755Z,9.03
2018-04-23T13:20:32.348Z,7.07
2018-04-23T13:22:58.992Z,7.90
2018-04-23T13:25:25.577Z,5.40
2018-04-23T13:27:52.156Z,5.73
2018-04-23T13:30:18.744Z,6.87
2018-04-23T13:32:45.331Z,9.50
2018-04-23T13:35:11.914Z,5.40
2018-04-23T13:37:38.488Z,6.40
2018-04-23T13:40:05.392Z,5.03
2018-04-23T13:42:32.040Z,6.33
2018-04-23T13:44:58.561Z,4.47
2018-04-23T13:47:25.161Z,6.53
2018-04-23T13:49:51.744Z,9.50
2018-04-23T13:52:18.328Z,5.50
2018-04-23T13:54:44.920Z,10.73
2018-04-23T13:57:11.505Z,8.83
2018-04-23T13:59:38.112Z,6.13
2018-04-23T14:02:04.695Z,4.40
2018-04-23T14:04:31.276Z,6.67
2018-04-23T14:06:57.913Z,6.07
2018-04-23T14:09:24.468Z,4.20
2018-04-23T14:11:51.076Z,3.87
2018-04-23T14:14:17.656Z,4.90
2018-04-23T14:16:44.233Z,5.90
2018-04-23T14:19:10.826Z,5.90
2018-04-23T14:21:37.406Z,3.57
2018-04-23T14:24:04.288Z,5.73
2018-04-23T14:26:30.867Z,4.30
2018-04-23T14:28:57.449Z,4.00
2018-04-23T14:31:24.035Z,4.67
2018-04-23T14:33:50.612Z,3.97
2018-04-23T14:36:17.213Z,3.43
2018-04-23T14:38:43.788Z,2.90
2018-04-23T14:41:10.372Z,3.73
2018-04-23T14:43:36.956Z,3.80
2018-04-23T14:46:03.539Z,5.27
2018-04-23T14:48:30.123Z,5.30
2018-04-23T14:50:56.704Z,4.60
2018-04-23T14:53:23.283Z,9.50
2018-04-23T14:55:49.914Z,4.83
2018-04-23T14:58:16.487Z,3.70
2018-04-23T15:00:43.086Z,3.20
2018-04-23T15:03:09.683Z,5.17
2018-04-23T15:05:36.286Z,4.80
2018-04-23T15:08:02.857Z,5.40
2018-04-23T15:10:29.436Z,6.37
2018-04-23T15:12:56.032Z,5.43
2018-04-23T15:15:22.612Z,7.90
2018-04-23T15:17:49.195Z,4.53
2018-04-23T15:20:15.780Z,5.57
2018-04-23T15:22:42.366Z,8.33
2018-04-23T15:25:08.957Z,6.63
2018-04-23T15:27:35.535Z,9.73
2018-04-23T15:30:02.177Z,8.40
2018-04-23T15:32:28.776Z,9.77
2018-04-23T15:34:55.352Z,9.57
2018-04-23T15:37:21.948Z,7.53
2018-04-23T15:39:48.524Z,8.97
2018-04-23T15:42:15.116Z,16.37
2018-04-23T15:44:41.710Z,8.93
2018-04-23T15:47:08.296Z,13.27
2018-04-23T15:49:34.972Z,8.73
2018-04-23T15:52:01.541Z,9.60
2018-04-23T15:54:28.138Z,8.90
2018-04-23T15:56:54.719Z,10.60
2018-04-23T15:59:21.307Z,11.70
2018-04-23T16:01:47.923Z,11.60
2018-04-23T16:04:14.503Z,8.43
2018-04-23T16:06:41.089Z,11.17
2018-04-23T16:09:07.689Z,8.70
2018-04-23T16:11:34.288Z,11.00
2018-04-23T16:14:00.884Z,13.10
2018-04-23T16:16:27.485Z,10.13
2018-04-23T16:18:54.064Z,6.83
2018-04-23T16:21:20.681Z,8.00
2018-04-23T16:23:47.264Z,7.67
2018-04-23T16:26:14.129Z,10.43
2018-04-23T16:28:40.712Z,7.37
2018-04-23T16:31:07.292Z,9.00
2018-04-23T16:33:33.893Z,6.53
2018-04-23T16:36:00.471Z,9.33
2018-04-23T16:38:27.064Z,7.10
2018-04-23T16:40:53.648Z,12.93
2018-04-23T16:43:20.233Z,7.00
2018-04-23T16:45:46.824Z,9.00
2018-04-23T16:48:13.407Z,10.70
2018-04-23T16:50:40.001Z,8.63
2018-04-23T16:53:06.583Z,7.40
2018-04-23T16:55:33.172Z,7.20
2018-04-23T16:57:59.760Z,6.10
2018-04-23T17:00:26.343Z,9.13
2018-04-23T17:02:52.936Z,10.00
2018-04-23T17:05:19.522Z,5.73
2018-04-23T17:07:46.175Z,7.03
2018-04-23T17:10:12.707Z,6.23
2018-04-23T17:12:39.284Z,7.70
2018-04-23T17:15:05.884Z,6.20
2018-04-23T17:17:32.464Z,7.87
2018-04-23T17:19:59.044Z,8.03
2018-04-23T17:22:25.640Z,7.43
2018-04-23T17:24:52.216Z,5.50
2018-04-23T17:27:18.816Z,9.13
2018-04-23T17:29:45.396Z,6.83
2018-04-23T17:32:11.996Z,10.10
2018-04-23T17:34:38.590Z,5.33
2018-04-23T17:37:05.180Z,6.10
2018-04-23T17:39:31.797Z,5.10
2018-04-23T17:41:58.411Z,5.97
2018-04-23T17:44:24.968Z,7.70
2018-04-23T17:46:51.572Z,4.33
2018-04-23T17:49:18.162Z,4.10
2018-04-23T17:51:45.012Z,6.77
2018-04-23T17:54:11.599Z,6.07
2018-04-23T17:56:38.201Z,7.73
2018-04-23T17:59:04.792Z,8.10
2018-04-23T18:01:32.301Z,4.93
2018-04-23T18:03:58.920Z,5.10
2018-04-23T18:06:25.500Z,5.33
2018-04-23T18:08:52.073Z,8.47
2018-04-23T18:11:18.702Z,7.80
2018-04-23T18:13:45.276Z,9.43
2018-04-23T18:16:11.873Z,6.30
2018-04-23T18:18:38.474Z,5.27
2018-04-23T18:21:05.080Z,6.77
2018-04-23T18:23:31.690Z,8.30
2018-04-23T18:25:58.380Z,4.20
2018-04-23T18:28:25.248Z,5.17
2018-04-23T18:30:51.852Z,5.27
2018-04-23T18:33:19.482Z,3.60
2018-04-23T18:35:46.096Z,5.17
2018-04-23T18:38:12.687Z,8.60
2018-04-23T18:40:39.297Z,5.13
2018-04-23T18:43:05.883Z,3.73
2018-04-23T18:45:32.496Z,3.83
2018-04-23T18:47:59.094Z,7.63
2018-04-23T18:50:26.661Z,7.40
2018-04-23T18:52:53.351Z,7.50
2018-04-23T18:55:19.931Z,5.93
2018-04-23T18:57:46.516Z,5.37
2018-04-23T19:00:13.124Z,3.83
2018-04-23T19:02:39.716Z,6.50
2018-04-23T19:05:06.312Z,5.83
2018-04-23T19:07:32.909Z,4.63
2018-04-23T19:09:59.484Z,6.23
2018-04-23T19:12:26.076Z,8.87
2018-04-23T19:14:52.672Z,8.97
2018-04-23T19:17:19.249Z,7.00
2018-04-23T19:19:45.843Z,6.60
2018-04-23T19:22:12.421Z,5.70
2018-04-23T19:24:39.031Z,7.13
2018-04-23T19:27:05.932Z,7.97
2018-04-23T19:29:32.513Z,5.93
2018-04-23T19:31:59.120Z,3.73
2018-04-23T19:34:25.713Z,4.70
2018-04-23T19:36:52.314Z,9.33
2018-04-23T19:39:18.928Z,3.70
2018-04-23T19:41:45.516Z,5.50
2018-04-23T19:44:12.116Z,6.50
2018-04-23T19:46:38.716Z,7.00
2018-04-23T19:49:05.309Z,6.03
2018-04-23T19:51:31.904Z,5.57
2018-04-23T19:53:58.487Z,6.77
2018-04-23T19:56:25.072Z,5.23
2018-04-23T19:58:51.663Z,4.60
2018-04-23T20:01:18.248Z,7.60
2018-04-23T20:03:44.832Z,4.20
2018-04-23T20:06:11.469Z,6.87
2018-04-23T20:08:38.064Z,7.13
2018-04-23T20:11:04.652Z,5.20
2018-04-23T20:13:31.232Z,4.50
2018-04-23T20:15:57.820Z,3.53
2018-04-23T20:18:24.413Z,4.00
2018-04-23T20:20:51.020Z,7.33
2018-04-23T20:23:17.631Z,6.77
2018-04-23T20:25:44.209Z,4.77
2018-04-23T20:28:10.797Z,5.20
2018-04-23T20:30:37.383Z,4.27
2018-04-23T20:33:03.968Z,5.80
2018-04-23T20:35:30.544Z,5.10
2018-04-23T20:37:57.123Z,5.10
2018-04-23T20:40:23.703Z,5.43
2018-04-23T20:42:50.284Z,9.10
2018-04-23T20:45:16.883Z,8.20
2018-04-23T20:47:43.456Z,5.80
2018-04-23T20:50:10.034Z,6.87
2018-04-23T20:52:36.624Z,7.00
2018-04-23T20:55:03.244Z,6.17
2018-04-23T20:57:30.192Z,4.53
2018-04-23T20:59:56.744Z,9.83
2018-04-23T21:02:23.324Z,4.37
2018-04-23T21:04:49.912Z,7.70
2018-04-23T21:07:16.484Z,8.67
2018-04-23T21:09:43.088Z,8.17
2018-04-23T21:12:09.677Z,6.80
2018-04-23T21:14:36.255Z,7.40
2018-04-23T21:19:32.703Z,4.87
2018-04-23T21:21:59.345Z,6.33
2018-04-23T21:24:25.921Z,6.83
2018-04-23T21:26:52.656Z,5.33
2018-04-23T21:29:19.243Z,4.87
2018-04-23T21:31:45.829Z,9.53
2018-04-23T21:34:12.449Z,8.37
2018-04-23T21:36:39.033Z,5.40
2018-04-23T21:39:05.608Z,6.20
2018-04-23T21:41:32.191Z,5.53
2018-04-23T21:43:58.769Z,7.10
2018-04-23T21:46:25.364Z,4.87
2018-04-23T21:48:51.943Z,6.07
2018-04-23T21:51:18.538Z,8.83
2018-04-23T21:53:45.115Z,7.13
2018-04-23T21:56:11.702Z,8.60
2018-04-23T21:58:38.300Z,8.07
2018-04-23T22:01:04.893Z,10.73
2018-04-23T22:03:31.475Z,7.20
2018-04-23T22:05:58.064Z,6.70
2018-04-23T22:08:24.652Z,8.63
2018-04-23T22:10:51.268Z,10.80
2018-04-23T22:13:17.852Z,7.43
2018-04-23T22:15:44.443Z,10.87
2018-04-23T22:18:11.116Z,10.17
2018-04-23T22:20:37.614Z,7.23
2018-04-23T22:23:04.223Z,7.50
2018-04-23T22:25:30.800Z,8.80
2018-04-23T22:27:57.380Z,6.33
2018-04-23T22:30:23.971Z,10.60
2018-04-23T22:32:50.603Z,7.57
2018-04-23T22:35:17.197Z,8.27
2018-04-23T22:37:43.772Z,6.03
2018-04-23T22:40:10.349Z,8.27
2018-04-23T22:42:36.929Z,6.73
2018-04-23T22:45:03.513Z,6.50
2018-04-23T22:47:30.108Z,6.70
2018-04-23T22:49:56.680Z,6.37
2018-04-23T22:52:23.276Z,5.60
2018-04-23T22:54:49.862Z,5.50
2018-04-23T22:57:16.432Z,6.70
2018-04-23T22:59:43.028Z,5.00
2018-04-23T23:02:09.607Z,5.43
2018-04-23T23:04:36.180Z,7.07
2018-04-23T23:07:02.773Z,10.17
2018-04-23T23:09:29.355Z,9.30
2018-04-23T23:11:55.952Z,5.07
2018-04-23T23:14:22.535Z,5.57
2018-04-23T23:16:49.120Z,6.77
2018-04-23T23:19:15.731Z,10.77
2018-04-23T23:21:42.308Z,6.03
2018-04-23T23:24:08.903Z,4.53
2018-04-23T23:26:35.484Z,11.97
2018-04-23T23:29:02.080Z,5.53
2018-04-23T23:31:28.666Z,4.97
2018-04-23T23:33:55.249Z,4.83
2018-04-23T23:36:21.836Z,7.10
2018-04-23T23:38:48.421Z,4.37
2018-04-23T23:41:14.995Z,5.57
2018-04-23T23:43:41.591Z,8.73
2018-04-23T23:46:08.583Z,5.40
2018-04-23T23:48:35.167Z,10.83
2018-04-23T23:51:01.748Z,5.60
2018-04-23T23:53:28.332Z,7.17
2018-04-23T23:55:54.976Z,7.97
2018-04-23T23:58:21.537Z,6.00
